Rocky River, Ohio
Current Conditions -  °F | °C
As of 9:51 AM on Wednesday 22 Oct 2014 (Local Time) from KCLE Reporting Station
Overcast Overcast  
Wind Chill: 43°   Ceiling: 1600
Heat Index: 48°   Visibility: 10mi
Dew Point: 42°   Wind: 12mph
Humidity: 80%   Direction: 10°N
Pressure: 30.27"   Gusts: NA
Location:  41.47°N, 81.85°W
Report Text: KCLE 221351Z 01010KT 10SM OVC016 09/06 A3027 RMK AO2 SLP255 T00890056 $
Loading
Personal Weather Stations






























Interactive Weather Map
Tropical Storm Tracking
New forecast layout! Learn more

10-Day Weather Forecast

Advertisements
Track Severe Weather on mobile